sensor_id;sensor_type;location;lat;lon;timestamp;P1;durP1;ratioP1;P2;durP2;ratioP2
76610;SDS011;65503;48.534;9.062;2023-07-30T00:00:48;10.90;;;5.55;;
76610;SDS011;65503;48.534;9.062;2023-07-30T00:03:15;10.50;;;5.88;;
76610;SDS011;65503;48.534;9.062;2023-07-30T00:05:42;10.50;;;5.82;;
76610;SDS011;65503;48.534;9.062;2023-07-30T00:08:08;9.57;;;5.40;;
76610;SDS011;65503;48.534;9.062;2023-07-30T00:10:37;9.38;;;6.07;;
76610;SDS011;65503;48.534;9.062;2023-07-30T00:13:04;12.73;;;6.18;;
76610;SDS011;65503;48.534;9.062;2023-07-30T00:15:30;9.70;;;6.03;;
76610;SDS011;65503;48.534;9.062;2023-07-30T00:17:57;11.15;;;5.75;;
76610;SDS011;65503;48.534;9.062;2023-07-30T00:20:23;9.95;;;5.97;;
76610;SDS011;65503;48.534;9.062;2023-07-30T00:22:52;9.00;;;5.18;;
76610;SDS011;65503;48.534;9.062;2023-07-30T00:25:19;9.55;;;5.30;;
76610;SDS011;65503;48.534;9.062;2023-07-30T00:27:46;13.48;;;5.38;;
76610;SDS011;65503;48.534;9.062;2023-07-30T00:30:12;8.98;;;5.40;;
76610;SDS011;65503;48.534;9.062;2023-07-30T00:32:42;8.20;;;5.47;;
76610;SDS011;65503;48.534;9.062;2023-07-30T00:35:11;8.90;;;4.53;;
76610;SDS011;65503;48.534;9.062;2023-07-30T00:37:37;7.28;;;4.03;;
76610;SDS011;65503;48.534;9.062;2023-07-30T00:40:04;7.68;;;4.10;;
76610;SDS011;65503;48.534;9.062;2023-07-30T00:42:31;8.43;;;4.13;;
76610;SDS011;65503;48.534;9.062;2023-07-30T00:44:57;7.65;;;4.40;;
76610;SDS011;65503;48.534;9.062;2023-07-30T00:47:24;7.13;;;4.00;;
76610;SDS011;65503;48.534;9.062;2023-07-30T00:49:52;8.98;;;4.57;;
76610;SDS011;65503;48.534;9.062;2023-07-30T00:52:20;7.38;;;4.22;;
76610;SDS011;65503;48.534;9.062;2023-07-30T00:54:48;7.65;;;4.53;;
76610;SDS011;65503;48.534;9.062;2023-07-30T00:59:44;6.07;;;3.83;;
76610;SDS011;65503;48.534;9.062;2023-07-30T01:02:11;7.13;;;4.10;;
76610;SDS011;65503;48.534;9.062;2023-07-30T01:07:06;7.50;;;4.22;;
76610;SDS011;65503;48.534;9.062;2023-07-30T01:12:00;6.57;;;3.42;;
76610;SDS011;65503;48.534;9.062;2023-07-30T01:14:28;8.18;;;4.13;;
76610;SDS011;65503;48.534;9.062;2023-07-30T01:16:55;8.48;;;4.20;;
76610;SDS011;65503;48.534;9.062;2023-07-30T01:19:22;6.78;;;4.32;;
76610;SDS011;65503;48.534;9.062;2023-07-30T01:21:48;7.93;;;4.60;;
76610;SDS011;65503;48.534;9.062;2023-07-30T01:24:15;7.35;;;4.18;;
76610;SDS011;65503;48.534;9.062;2023-07-30T01:26:43;8.38;;;4.40;;
76610;SDS011;65503;48.534;9.062;2023-07-30T01:29:23;7.63;;;4.10;;
76610;SDS011;65503;48.534;9.062;2023-07-30T01:31:57;8.23;;;4.18;;
76610;SDS011;65503;48.534;9.062;2023-07-30T01:34:28;7.00;;;4.13;;
76610;SDS011;65503;48.534;9.062;2023-07-30T01:36:56;9.35;;;4.20;;
76610;SDS011;65503;48.534;9.062;2023-07-30T01:39:24;9.65;;;4.47;;
76610;SDS011;65503;48.534;9.062;2023-07-30T01:41:53;7.63;;;4.65;;
76610;SDS011;65503;48.534;9.062;2023-07-30T01:44:20;7.32;;;4.40;;
76610;SDS011;65503;48.534;9.062;2023-07-30T01:46:47;8.77;;;4.25;;
76610;SDS011;65503;48.534;9.062;2023-07-30T01:49:13;8.10;;;4.57;;
76610;SDS011;65503;48.534;9.062;2023-07-30T01:51:45;7.60;;;4.10;;
76610;SDS011;65503;48.534;9.062;2023-07-30T01:54:12;7.38;;;4.47;;
76610;SDS011;65503;48.534;9.062;2023-07-30T01:56:38;6.95;;;3.83;;
76610;SDS011;65503;48.534;9.062;2023-07-30T01:59:05;7.72;;;4.05;;
76610;SDS011;65503;48.534;9.062;2023-07-30T02:01:31;7.38;;;4.18;;
76610;SDS011;65503;48.534;9.062;2023-07-30T02:03:58;8.00;;;4.40;;
76610;SDS011;65503;48.534;9.062;2023-07-30T02:06:24;7.28;;;4.30;;
76610;SDS011;65503;48.534;9.062;2023-07-30T02:08:51;7.03;;;4.05;;
76610;SDS011;65503;48.534;9.062;2023-07-30T02:11:18;8.75;;;4.57;;
76610;SDS011;65503;48.534;9.062;2023-07-30T02:13:47;9.40;;;4.68;;
76610;SDS011;65503;48.534;9.062;2023-07-30T02:16:14;8.63;;;4.63;;
76610;SDS011;65503;48.534;9.062;2023-07-30T02:18:40;8.15;;;4.90;;
76610;SDS011;65503;48.534;9.062;2023-07-30T02:21:07;8.55;;;4.32;;
76610;SDS011;65503;48.534;9.062;2023-07-30T02:23:33;8.20;;;4.90;;
76610;SDS011;65503;48.534;9.062;2023-07-30T02:26:00;9.35;;;5.10;;
76610;SDS011;65503;48.534;9.062;2023-07-30T02:28:27;7.45;;;4.32;;
76610;SDS011;65503;48.534;9.062;2023-07-30T02:30:53;7.28;;;4.50;;
76610;SDS011;65503;48.534;9.062;2023-07-30T02:33:20;10.30;;;5.47;;
76610;SDS011;65503;48.534;9.062;2023-07-30T02:35:46;8.75;;;5.40;;
76610;SDS011;65503;48.534;9.062;2023-07-30T02:38:13;11.63;;;5.82;;
76610;SDS011;65503;48.534;9.062;2023-07-30T02:40:39;9.23;;;5.30;;
76610;SDS011;65503;48.534;9.062;2023-07-30T02:43:05;10.23;;;5.85;;
76610;SDS011;65503;48.534;9.062;2023-07-30T02:45:32;9.45;;;5.82;;
76610;SDS011;65503;48.534;9.062;2023-07-30T02:47:59;11.43;;;5.45;;
76610;SDS011;65503;48.534;9.062;2023-07-30T02:50:25;7.95;;;4.88;;
76610;SDS011;65503;48.534;9.062;2023-07-30T02:52:52;9.32;;;5.13;;
76610;SDS011;65503;48.534;9.062;2023-07-30T02:55:18;9.20;;;5.40;;
76610;SDS011;65503;48.534;9.062;2023-07-30T02:57:45;9.35;;;5.18;;
76610;SDS011;65503;48.534;9.062;2023-07-30T03:00:11;8.60;;;5.15;;
76610;SDS011;65503;48.534;9.062;2023-07-30T03:02:39;9.98;;;5.35;;
76610;SDS011;65503;48.534;9.062;2023-07-30T03:05:06;9.60;;;5.00;;
76610;SDS011;65503;48.534;9.062;2023-07-30T03:07:34;10.40;;;5.05;;
76610;SDS011;65503;48.534;9.062;2023-07-30T03:10:01;10.90;;;4.47;;
76610;SDS011;65503;48.534;9.062;2023-07-30T03:12:28;8.70;;;5.07;;
76610;SDS011;65503;48.534;9.062;2023-07-30T03:14:55;9.57;;;5.40;;
76610;SDS011;65503;48.534;9.062;2023-07-30T03:17:21;9.23;;;4.80;;
76610;SDS011;65503;48.534;9.062;2023-07-30T03:19:48;7.97;;;4.53;;
76610;SDS011;65503;48.534;9.062;2023-07-30T03:22:15;9.65;;;4.80;;
76610;SDS011;65503;48.534;9.062;2023-07-30T03:24:42;8.60;;;5.30;;
76610;SDS011;65503;48.534;9.062;2023-07-30T03:27:09;8.35;;;4.80;;
76610;SDS011;65503;48.534;9.062;2023-07-30T03:29:35;9.50;;;5.18;;
76610;SDS011;65503;48.534;9.062;2023-07-30T03:32:02;7.78;;;4.75;;
76610;SDS011;65503;48.534;9.062;2023-07-30T03:34:28;8.00;;;4.72;;
76610;SDS011;65503;48.534;9.062;2023-07-30T03:36:55;8.98;;;4.78;;
76610;SDS011;65503;48.534;9.062;2023-07-30T03:39:23;8.13;;;4.80;;
76610;SDS011;65503;48.534;9.062;2023-07-30T03:41:49;8.38;;;4.85;;
76610;SDS011;65503;48.534;9.062;2023-07-30T03:44:16;10.38;;;5.45;;
76610;SDS011;65503;48.534;9.062;2023-07-30T03:46:43;8.70;;;4.97;;
76610;SDS011;65503;48.534;9.062;2023-07-30T03:51:36;11.50;;;6.18;;
76610;SDS011;65503;48.534;9.062;2023-07-30T03:54:05;11.10;;;5.70;;
76610;SDS011;65503;48.534;9.062;2023-07-30T03:56:31;11.38;;;6.20;;
76610;SDS011;65503;48.534;9.062;2023-07-30T03:58:58;9.63;;;5.63;;
76610;SDS011;65503;48.534;9.062;2023-07-30T04:01:24;9.23;;;5.53;;
76610;SDS011;65503;48.534;9.062;2023-07-30T04:03:51;8.77;;;4.88;;
76610;SDS011;65503;48.534;9.062;2023-07-30T04:06:17;8.95;;;5.10;;
76610;SDS011;65503;48.534;9.062;2023-07-30T04:08:44;9.55;;;5.97;;
76610;SDS011;65503;48.534;9.062;2023-07-30T04:11:10;9.95;;;5.93;;
76610;SDS011;65503;48.534;9.062;2023-07-30T04:13:37;9.27;;;6.03;;
76610;SDS011;65503;48.534;9.062;2023-07-30T04:16:03;8.68;;;5.38;;
76610;SDS011;65503;48.534;9.062;2023-07-30T04:18:30;9.13;;;5.60;;
76610;SDS011;65503;48.534;9.062;2023-07-30T04:20:56;10.25;;;6.70;;
76610;SDS011;65503;48.534;9.062;2023-07-30T04:23:23;11.13;;;7.00;;
76610;SDS011;65503;48.534;9.062;2023-07-30T04:25:50;9.20;;;5.72;;
76610;SDS011;65503;48.534;9.062;2023-07-30T04:28:17;9.80;;;6.15;;
76610;SDS011;65503;48.534;9.062;2023-07-30T04:30:44;10.55;;;5.93;;
76610;SDS011;65503;48.534;9.062;2023-07-30T04:33:10;10.13;;;4.63;;
76610;SDS011;65503;48.534;9.062;2023-07-30T04:35:37;6.95;;;4.43;;
76610;SDS011;65503;48.534;9.062;2023-07-30T04:38:03;8.60;;;4.78;;
76610;SDS011;65503;48.534;9.062;2023-07-30T04:40:30;10.68;;;5.45;;
76610;SDS011;65503;48.534;9.062;2023-07-30T04:42:57;10.80;;;5.50;;
76610;SDS011;65503;48.534;9.062;2023-07-30T04:45:23;12.38;;;5.90;;
76610;SDS011;65503;48.534;9.062;2023-07-30T04:47:50;13.15;;;5.78;;
76610;SDS011;65503;48.534;9.062;2023-07-30T04:50:16;9.85;;;5.97;;
76610;SDS011;65503;48.534;9.062;2023-07-30T04:52:43;10.18;;;6.38;;
76610;SDS011;65503;48.534;9.062;2023-07-30T04:55:09;11.38;;;6.20;;
76610;SDS011;65503;48.534;9.062;2023-07-30T04:57:36;9.98;;;6.07;;
76610;SDS011;65503;48.534;9.062;2023-07-30T05:00:03;12.32;;;6.47;;
76610;SDS011;65503;48.534;9.062;2023-07-30T05:02:29;9.88;;;6.13;;
76610;SDS011;65503;48.534;9.062;2023-07-30T05:04:56;10.40;;;6.50;;
76610;SDS011;65503;48.534;9.062;2023-07-30T05:07:23;10.63;;;6.25;;
76610;SDS011;65503;48.534;9.062;2023-07-30T05:09:49;9.10;;;5.82;;
76610;SDS011;65503;48.534;9.062;2023-07-30T05:12:16;8.30;;;5.40;;
76610;SDS011;65503;48.534;9.062;2023-07-30T05:14:42;7.57;;;4.45;;
76610;SDS011;65503;48.534;9.062;2023-07-30T05:17:09;6.18;;;3.90;;
76610;SDS011;65503;48.534;9.062;2023-07-30T05:19:35;8.18;;;4.68;;
76610;SDS011;65503;48.534;9.062;2023-07-30T05:22:02;7.93;;;4.55;;
76610;SDS011;65503;48.534;9.062;2023-07-30T05:24:29;6.80;;;4.75;;
76610;SDS011;65503;48.534;9.062;2023-07-30T05:26:55;6.93;;;4.60;;
76610;SDS011;65503;48.534;9.062;2023-07-30T05:29:21;9.93;;;4.47;;
76610;SDS011;65503;48.534;9.062;2023-07-30T05:31:48;5.97;;;4.13;;
76610;SDS011;65503;48.534;9.062;2023-07-30T05:34:15;6.55;;;3.80;;
76610;SDS011;65503;48.534;9.062;2023-07-30T05:36:41;4.85;;;2.92;;
76610;SDS011;65503;48.534;9.062;2023-07-30T05:39:08;5.28;;;2.90;;
76610;SDS011;65503;48.534;9.062;2023-07-30T05:41:34;6.97;;;2.72;;
76610;SDS011;65503;48.534;9.062;2023-07-30T05:44:01;8.50;;;2.75;;
76610;SDS011;65503;48.534;9.062;2023-07-30T05:46:28;4.80;;;2.63;;
76610;SDS011;65503;48.534;9.062;2023-07-30T05:48:54;5.50;;;2.97;;
76610;SDS011;65503;48.534;9.062;2023-07-30T05:51:21;6.25;;;2.70;;
76610;SDS011;65503;48.534;9.062;2023-07-30T05:53:48;5.95;;;3.22;;
76610;SDS011;65503;48.534;9.062;2023-07-30T05:56:14;7.13;;;2.88;;
76610;SDS011;65503;48.534;9.062;2023-07-30T05:58:44;7.30;;;2.67;;
76610;SDS011;65503;48.534;9.062;2023-07-30T06:01:11;5.70;;;2.88;;
76610;SDS011;65503;48.534;9.062;2023-07-30T06:03:40;5.28;;;2.97;;
76610;SDS011;65503;48.534;9.062;2023-07-30T06:06:07;6.00;;;3.38;;
76610;SDS011;65503;48.534;9.062;2023-07-30T06:08:33;7.90;;;3.30;;
76610;SDS011;65503;48.534;9.062;2023-07-30T06:11:00;7.45;;;3.13;;
76610;SDS011;65503;48.534;9.062;2023-07-30T06:13:29;6.65;;;3.10;;
76610;SDS011;65503;48.534;9.062;2023-07-30T06:15:56;7.00;;;3.72;;
76610;SDS011;65503;48.534;9.062;2023-07-30T06:18:22;8.70;;;3.75;;
76610;SDS011;65503;48.534;9.062;2023-07-30T06:20:49;5.63;;;3.30;;
76610;SDS011;65503;48.534;9.062;2023-07-30T06:23:16;6.50;;;2.90;;
76610;SDS011;65503;48.534;9.062;2023-07-30T06:25:42;5.45;;;3.13;;
76610;SDS011;65503;48.534;9.062;2023-07-30T06:28:09;8.10;;;3.13;;
76610;SDS011;65503;48.534;9.062;2023-07-30T06:30:35;5.20;;;2.83;;
76610;SDS011;65503;48.534;9.062;2023-07-30T06:33:03;7.75;;;2.63;;
76610;SDS011;65503;48.534;9.062;2023-07-30T06:35:29;6.85;;;2.85;;
76610;SDS011;65503;48.534;9.062;2023-07-30T06:37:56;5.43;;;2.70;;
76610;SDS011;65503;48.534;9.062;2023-07-30T06:40:22;5.20;;;2.47;;
76610;SDS011;65503;48.534;9.062;2023-07-30T06:45:16;3.67;;;1.80;;
76610;SDS011;65503;48.534;9.062;2023-07-30T06:47:42;4.25;;;2.10;;
76610;SDS011;65503;48.534;9.062;2023-07-30T06:50:09;3.35;;;1.90;;
76610;SDS011;65503;48.534;9.062;2023-07-30T06:52:36;6.45;;;2.30;;
76610;SDS011;65503;48.534;9.062;2023-07-30T06:55:03;3.53;;;1.85;;
76610;SDS011;65503;48.534;9.062;2023-07-30T06:57:30;4.78;;;1.95;;
76610;SDS011;65503;48.534;9.062;2023-07-30T06:59:56;3.80;;;2.00;;
76610;SDS011;65503;48.534;9.062;2023-07-30T07:02:24;3.80;;;1.77;;
76610;SDS011;65503;48.534;9.062;2023-07-30T07:04:50;6.57;;;1.88;;
76610;SDS011;65503;48.534;9.062;2023-07-30T07:07:17;4.70;;;2.13;;
76610;SDS011;65503;48.534;9.062;2023-07-30T07:09:44;4.43;;;2.13;;
76610;SDS011;65503;48.534;9.062;2023-07-30T07:12:10;5.13;;;2.03;;
76610;SDS011;65503;48.534;9.062;2023-07-30T07:14:37;10.05;;;2.40;;
76610;SDS011;65503;48.534;9.062;2023-07-30T07:17:03;4.88;;;2.20;;
76610;SDS011;65503;48.534;9.062;2023-07-30T07:19:30;4.43;;;1.92;;
76610;SDS011;65503;48.534;9.062;2023-07-30T07:21:57;3.58;;;2.10;;
76610;SDS011;65503;48.534;9.062;2023-07-30T07:24:24;4.50;;;2.33;;
76610;SDS011;65503;48.534;9.062;2023-07-30T07:26:50;4.20;;;2.28;;
76610;SDS011;65503;48.534;9.062;2023-07-30T07:29:17;4.93;;;2.55;;
76610;SDS011;65503;48.534;9.062;2023-07-30T07:31:44;8.07;;;3.13;;
76610;SDS011;65503;48.534;9.062;2023-07-30T07:34:11;6.20;;;2.42;;
76610;SDS011;65503;48.534;9.062;2023-07-30T07:36:38;2.83;;;1.40;;
76610;SDS011;65503;48.534;9.062;2023-07-30T07:39:05;5.85;;;2.25;;
76610;SDS011;65503;48.534;9.062;2023-07-30T07:41:32;3.83;;;2.20;;
76610;SDS011;65503;48.534;9.062;2023-07-30T07:43:59;4.70;;;2.03;;
76610;SDS011;65503;48.534;9.062;2023-07-30T07:46:25;3.95;;;2.03;;
76610;SDS011;65503;48.534;9.062;2023-07-30T07:48:53;5.53;;;2.15;;
76610;SDS011;65503;48.534;9.062;2023-07-30T07:51:20;3.65;;;1.85;;
76610;SDS011;65503;48.534;9.062;2023-07-30T07:53:46;3.88;;;1.80;;
76610;SDS011;65503;48.534;9.062;2023-07-30T07:56:13;3.95;;;1.85;;
76610;SDS011;65503;48.534;9.062;2023-07-30T07:58:40;3.95;;;2.10;;
76610;SDS011;65503;48.534;9.062;2023-07-30T08:01:08;4.13;;;2.00;;
76610;SDS011;65503;48.534;9.062;2023-07-30T08:03:35;3.53;;;1.63;;
76610;SDS011;65503;48.534;9.062;2023-07-30T08:06:02;2.88;;;1.60;;
76610;SDS011;65503;48.534;9.062;2023-07-30T08:08:28;3.38;;;1.45;;
76610;SDS011;65503;48.534;9.062;2023-07-30T08:10:55;2.65;;;1.60;;
76610;SDS011;65503;48.534;9.062;2023-07-30T08:13:21;2.83;;;1.33;;
76610;SDS011;65503;48.534;9.062;2023-07-30T08:15:49;2.97;;;1.52;;
76610;SDS011;65503;48.534;9.062;2023-07-30T08:18:15;3.05;;;1.35;;
76610;SDS011;65503;48.534;9.062;2023-07-30T08:20:42;2.47;;;1.30;;
76610;SDS011;65503;48.534;9.062;2023-07-30T08:23:08;3.45;;;1.85;;
76610;SDS011;65503;48.534;9.062;2023-07-30T08:28:01;2.92;;;1.30;;
76610;SDS011;65503;48.534;9.062;2023-07-30T08:30:28;2.45;;;1.45;;
76610;SDS011;65503;48.534;9.062;2023-07-30T08:32:55;4.63;;;1.48;;
76610;SDS011;65503;48.534;9.062;2023-07-30T08:35:21;1.83;;;1.23;;
76610;SDS011;65503;48.534;9.062;2023-07-30T08:37:48;5.05;;;1.40;;
76610;SDS011;65503;48.534;9.062;2023-07-30T08:40:14;2.53;;;1.30;;
76610;SDS011;65503;48.534;9.062;2023-07-30T08:42:43;2.45;;;1.40;;
76610;SDS011;65503;48.534;9.062;2023-07-30T08:45:10;2.47;;;1.40;;
76610;SDS011;65503;48.534;9.062;2023-07-30T08:47:37;4.00;;;1.30;;
76610;SDS011;65503;48.534;9.062;2023-07-30T08:50:06;2.95;;;1.60;;
76610;SDS011;65503;48.534;9.062;2023-07-30T08:55:01;2.60;;;1.30;;
76610;SDS011;65503;48.534;9.062;2023-07-30T08:57:29;1.90;;;1.30;;
76610;SDS011;65503;48.534;9.062;2023-07-30T09:00:00;1.92;;;1.40;;
76610;SDS011;65503;48.534;9.062;2023-07-30T09:02:37;1.95;;;1.20;;
76610;SDS011;65503;48.534;9.062;2023-07-30T09:05:08;3.53;;;2.22;;
76610;SDS011;65503;48.534;9.062;2023-07-30T09:07:35;2.90;;;1.42;;
76610;SDS011;65503;48.534;9.062;2023-07-30T09:12:32;4.43;;;1.42;;
76610;SDS011;65503;48.534;9.062;2023-07-30T09:15:01;3.38;;;1.58;;
76610;SDS011;65503;48.534;9.062;2023-07-30T09:17:30;3.78;;;1.58;;
76610;SDS011;65503;48.534;9.062;2023-07-30T09:20:01;3.30;;;1.60;;
76610;SDS011;65503;48.534;9.062;2023-07-30T09:22:32;2.53;;;1.50;;
76610;SDS011;65503;48.534;9.062;2023-07-30T09:25:02;2.38;;;1.30;;
76610;SDS011;65503;48.534;9.062;2023-07-30T09:27:29;4.30;;;1.63;;
76610;SDS011;65503;48.534;9.062;2023-07-30T09:29:58;2.60;;;1.55;;
76610;SDS011;65503;48.534;9.062;2023-07-30T09:34:54;3.47;;;1.88;;
76610;SDS011;65503;48.534;9.062;2023-07-30T09:39:48;5.10;;;1.63;;
76610;SDS011;65503;48.534;9.062;2023-07-30T09:42:14;2.60;;;1.73;;
76610;SDS011;65503;48.534;9.062;2023-07-30T09:44:41;3.55;;;1.75;;
76610;SDS011;65503;48.534;9.062;2023-07-30T09:47:09;2.33;;;1.40;;
76610;SDS011;65503;48.534;9.062;2023-07-30T09:49:36;3.90;;;1.60;;
76610;SDS011;65503;48.534;9.062;2023-07-30T09:52:04;4.07;;;1.48;;
76610;SDS011;65503;48.534;9.062;2023-07-30T09:54:32;3.65;;;1.60;;
76610;SDS011;65503;48.534;9.062;2023-07-30T09:56:59;2.78;;;1.50;;
76610;SDS011;65503;48.534;9.062;2023-07-30T09:59:26;4.38;;;1.40;;
76610;SDS011;65503;48.534;9.062;2023-07-30T10:01:53;1.98;;;1.25;;
76610;SDS011;65503;48.534;9.062;2023-07-30T10:04:22;3.13;;;1.73;;
76610;SDS011;65503;48.534;9.062;2023-07-30T10:06:56;3.88;;;1.50;;
76610;SDS011;65503;48.534;9.062;2023-07-30T10:09:29;3.72;;;1.50;;
76610;SDS011;65503;48.534;9.062;2023-07-30T10:12:00;2.15;;;1.25;;
76610;SDS011;65503;48.534;9.062;2023-07-30T10:14:27;2.88;;;1.40;;
76610;SDS011;65503;48.534;9.062;2023-07-30T10:17:00;3.35;;;1.50;;
76610;SDS011;65503;48.534;9.062;2023-07-30T10:19:28;2.72;;;1.45;;
76610;SDS011;65503;48.534;9.062;2023-07-30T10:24:38;2.63;;;1.40;;
76610;SDS011;65503;48.534;9.062;2023-07-30T10:27:06;2.20;;;1.30;;
76610;SDS011;65503;48.534;9.062;2023-07-30T10:29:38;3.83;;;1.70;;
76610;SDS011;65503;48.534;9.062;2023-07-30T10:34:46;3.75;;;1.50;;
76610;SDS011;65503;48.534;9.062;2023-07-30T10:37:17;3.08;;;1.60;;
76610;SDS011;65503;48.534;9.062;2023-07-30T10:39:47;3.78;;;1.45;;
76610;SDS011;65503;48.534;9.062;2023-07-30T10:42:14;2.28;;;1.20;;
76610;SDS011;65503;48.534;9.062;2023-07-30T10:44:43;2.40;;;1.40;;
76610;SDS011;65503;48.534;9.062;2023-07-30T10:47:11;4.43;;;1.55;;
76610;SDS011;65503;48.534;9.062;2023-07-30T10:50:00;3.45;;;1.52;;
76610;SDS011;65503;48.534;9.062;2023-07-30T10:52:28;2.35;;;1.33;;
76610;SDS011;65503;48.534;9.062;2023-07-30T10:55:00;3.40;;;1.95;;
76610;SDS011;65503;48.534;9.062;2023-07-30T10:57:31;3.92;;;1.50;;
76610;SDS011;65503;48.534;9.062;2023-07-30T11:00:01;3.63;;;1.70;;
76610;SDS011;65503;48.534;9.062;2023-07-30T11:02:29;3.55;;;1.77;;
76610;SDS011;65503;48.534;9.062;2023-07-30T11:04:56;3.28;;;1.58;;
76610;SDS011;65503;48.534;9.062;2023-07-30T11:07:23;4.05;;;1.98;;
76610;SDS011;65503;48.534;9.062;2023-07-30T11:09:59;3.03;;;1.65;;
76610;SDS011;65503;48.534;9.062;2023-07-30T11:12:29;4.07;;;1.60;;
76610;SDS011;65503;48.534;9.062;2023-07-30T11:17:26;3.58;;;1.63;;
76610;SDS011;65503;48.534;9.062;2023-07-30T11:22:28;4.03;;;1.90;;
76610;SDS011;65503;48.534;9.062;2023-07-30T11:24:57;3.85;;;1.40;;
76610;SDS011;65503;48.534;9.062;2023-07-30T11:27:24;3.55;;;1.73;;
76610;SDS011;65503;48.534;9.062;2023-07-30T11:29:54;3.25;;;1.30;;
76610;SDS011;65503;48.534;9.062;2023-07-30T11:32:23;3.75;;;1.73;;
76610;SDS011;65503;48.534;9.062;2023-07-30T11:34:52;4.15;;;1.77;;
76610;SDS011;65503;48.534;9.062;2023-07-30T11:37:20;3.50;;;1.60;;
76610;SDS011;65503;48.534;9.062;2023-07-30T11:39:48;3.65;;;1.77;;
76610;SDS011;65503;48.534;9.062;2023-07-30T11:42:14;3.78;;;1.63;;
76610;SDS011;65503;48.534;9.062;2023-07-30T11:44:41;3.88;;;1.70;;
76610;SDS011;65503;48.534;9.062;2023-07-30T11:47:08;6.00;;;1.70;;
76610;SDS011;65503;48.534;9.062;2023-07-30T11:49:37;3.58;;;1.58;;
76610;SDS011;65503;48.534;9.062;2023-07-30T11:52:05;3.40;;;1.45;;
76610;SDS011;65503;48.534;9.062;2023-07-30T11:54:32;3.40;;;1.70;;
76610;SDS011;65503;48.534;9.062;2023-07-30T11:56:59;4.78;;;1.90;;
76610;SDS011;65503;48.534;9.062;2023-07-30T11:59:25;3.20;;;1.63;;
76610;SDS011;65503;48.534;9.062;2023-07-30T12:01:52;4.80;;;1.88;;
76610;SDS011;65503;48.534;9.062;2023-07-30T12:04:19;2.58;;;1.60;;
76610;SDS011;65503;48.534;9.062;2023-07-30T12:06:46;4.15;;;1.70;;
76610;SDS011;65503;48.534;9.062;2023-07-30T12:09:23;3.50;;;1.77;;
76610;SDS011;65503;48.534;9.062;2023-07-30T12:17:14;3.97;;;1.55;;
76610;SDS011;65503;48.534;9.062;2023-07-30T12:19:41;4.43;;;1.70;;
76610;SDS011;65503;48.534;9.062;2023-07-30T12:22:08;3.92;;;1.63;;
76610;SDS011;65503;48.534;9.062;2023-07-30T12:24:34;3.25;;;1.48;;
76610;SDS011;65503;48.534;9.062;2023-07-30T12:27:01;2.95;;;1.60;;
76610;SDS011;65503;48.534;9.062;2023-07-30T12:29:28;3.42;;;1.70;;
76610;SDS011;65503;48.534;9.062;2023-07-30T12:31:54;4.28;;;1.85;;
76610;SDS011;65503;48.534;9.062;2023-07-30T12:34:23;3.67;;;1.60;;
76610;SDS011;65503;48.534;9.062;2023-07-30T12:36:51;3.83;;;1.70;;
76610;SDS011;65503;48.534;9.062;2023-07-30T12:39:17;3.35;;;1.80;;
76610;SDS011;65503;48.534;9.062;2023-07-30T12:41:44;2.88;;;1.50;;
76610;SDS011;65503;48.534;9.062;2023-07-30T12:44:10;4.15;;;1.63;;
76610;SDS011;65503;48.534;9.062;2023-07-30T12:46:37;3.35;;;1.60;;
76610;SDS011;65503;48.534;9.062;2023-07-30T12:49:03;2.33;;;1.48;;
76610;SDS011;65503;48.534;9.062;2023-07-30T12:51:31;3.38;;;1.42;;
76610;SDS011;65503;48.534;9.062;2023-07-30T12:53:58;3.35;;;1.50;;
76610;SDS011;65503;48.534;9.062;2023-07-30T12:56:24;3.53;;;1.55;;
76610;SDS011;65503;48.534;9.062;2023-07-30T12:58:51;4.88;;;1.70;;
76610;SDS011;65503;48.534;9.062;2023-07-30T13:01:17;3.42;;;1.40;;
76610;SDS011;65503;48.534;9.062;2023-07-30T13:03:44;3.25;;;1.60;;
76610;SDS011;65503;48.534;9.062;2023-07-30T13:06:13;3.92;;;1.80;;
76610;SDS011;65503;48.534;9.062;2023-07-30T13:08:39;5.07;;;1.90;;
76610;SDS011;65503;48.534;9.062;2023-07-30T13:11:06;4.32;;;1.85;;
76610;SDS011;65503;48.534;9.062;2023-07-30T13:13:33;8.38;;;1.65;;
76610;SDS011;65503;48.534;9.062;2023-07-30T13:16:00;4.32;;;1.92;;
76610;SDS011;65503;48.534;9.062;2023-07-30T13:18:28;4.90;;;1.65;;
76610;SDS011;65503;48.534;9.062;2023-07-30T13:20:55;5.20;;;1.80;;
76610;SDS011;65503;48.534;9.062;2023-07-30T13:23:22;4.05;;;1.60;;
76610;SDS011;65503;48.534;9.062;2023-07-30T13:25:51;3.92;;;1.90;;
76610;SDS011;65503;48.534;9.062;2023-07-30T13:28:18;3.03;;;1.60;;
76610;SDS011;65503;48.534;9.062;2023-07-30T13:30:45;5.28;;;1.77;;
76610;SDS011;65503;48.534;9.062;2023-07-30T13:33:11;4.55;;;1.58;;
76610;SDS011;65503;48.534;9.062;2023-07-30T13:35:38;7.03;;;2.15;;
76610;SDS011;65503;48.534;9.062;2023-07-30T13:38:04;5.00;;;2.15;;
76610;SDS011;65503;48.534;9.062;2023-07-30T13:40:31;4.18;;;1.73;;
76610;SDS011;65503;48.534;9.062;2023-07-30T13:42:57;3.85;;;1.75;;
76610;SDS011;65503;48.534;9.062;2023-07-30T13:45:24;4.22;;;2.03;;
76610;SDS011;65503;48.534;9.062;2023-07-30T13:47:50;4.50;;;2.00;;
76610;SDS011;65503;48.534;9.062;2023-07-30T13:50:17;4.78;;;1.80;;
76610;SDS011;65503;48.534;9.062;2023-07-30T13:52:44;3.25;;;1.73;;
76610;SDS011;65503;48.534;9.062;2023-07-30T13:55:10;3.78;;;1.70;;
76610;SDS011;65503;48.534;9.062;2023-07-30T14:00:04;3.78;;;1.80;;
76610;SDS011;65503;48.534;9.062;2023-07-30T14:02:32;6.63;;;1.90;;
76610;SDS011;65503;48.534;9.062;2023-07-30T14:04:59;3.10;;;1.70;;
76610;SDS011;65503;48.534;9.062;2023-07-30T14:07:25;4.55;;;1.92;;
76610;SDS011;65503;48.534;9.062;2023-07-30T14:09:52;5.28;;;1.92;;
76610;SDS011;65503;48.534;9.062;2023-07-30T14:12:18;4.45;;;1.88;;
76610;SDS011;65503;48.534;9.062;2023-07-30T14:14:45;3.90;;;1.95;;
76610;SDS011;65503;48.534;9.062;2023-07-30T14:17:11;4.22;;;1.58;;
76610;SDS011;65503;48.534;9.062;2023-07-30T14:19:41;5.03;;;1.90;;
76610;SDS011;65503;48.534;9.062;2023-07-30T14:22:08;5.20;;;1.70;;
76610;SDS011;65503;48.534;9.062;2023-07-30T14:24:34;3.08;;;1.30;;
76610;SDS011;65503;48.534;9.062;2023-07-30T14:27:03;3.20;;;1.55;;
76610;SDS011;65503;48.534;9.062;2023-07-30T14:29:31;4.43;;;1.67;;
76610;SDS011;65503;48.534;9.062;2023-07-30T14:31:57;5.15;;;1.48;;
76610;SDS011;65503;48.534;9.062;2023-07-30T14:34:24;5.88;;;1.88;;
76610;SDS011;65503;48.534;9.062;2023-07-30T14:36:51;4.22;;;1.60;;
76610;SDS011;65503;48.534;9.062;2023-07-30T14:39:17;6.30;;;1.40;;
76610;SDS011;65503;48.534;9.062;2023-07-30T14:41:44;3.85;;;1.50;;
76610;SDS011;65503;48.534;9.062;2023-07-30T14:44:11;4.07;;;1.58;;
76610;SDS011;65503;48.534;9.062;2023-07-30T14:46:37;2.72;;;1.30;;
76610;SDS011;65503;48.534;9.062;2023-07-30T14:49:04;2.92;;;1.45;;
76610;SDS011;65503;48.534;9.062;2023-07-30T14:51:30;3.75;;;1.50;;
76610;SDS011;65503;48.534;9.062;2023-07-30T14:53:57;3.85;;;1.58;;
76610;SDS011;65503;48.534;9.062;2023-07-30T14:56:23;4.10;;;1.48;;
76610;SDS011;65503;48.534;9.062;2023-07-30T14:58:50;5.18;;;1.52;;
76610;SDS011;65503;48.534;9.062;2023-07-30T15:01:16;4.65;;;1.42;;
76610;SDS011;65503;48.534;9.062;2023-07-30T15:03:43;3.67;;;1.50;;
76610;SDS011;65503;48.534;9.062;2023-07-30T15:06:09;3.50;;;1.33;;
76610;SDS011;65503;48.534;9.062;2023-07-30T15:08:36;3.60;;;1.50;;
76610;SDS011;65503;48.534;9.062;2023-07-30T15:11:03;3.30;;;1.40;;
76610;SDS011;65503;48.534;9.062;2023-07-30T15:13:29;2.95;;;1.55;;
76610;SDS011;65503;48.534;9.062;2023-07-30T15:15:56;7.30;;;1.65;;
76610;SDS011;65503;48.534;9.062;2023-07-30T15:18:22;4.28;;;1.45;;
76610;SDS011;65503;48.534;9.062;2023-07-30T15:20:49;2.95;;;1.30;;
76610;SDS011;65503;48.534;9.062;2023-07-30T15:23:16;3.25;;;1.38;;
76610;SDS011;65503;48.534;9.062;2023-07-30T15:25:43;4.82;;;1.40;;
76610;SDS011;65503;48.534;9.062;2023-07-30T15:28:09;4.50;;;1.30;;